createdAt,value
2022-10-07T00:01:49.752Z,5.68
2022-10-07T00:07:11.030Z,5.82
2022-10-07T00:12:31.920Z,4.97
2022-10-07T00:17:53.437Z,4.57
2022-10-07T00:23:14.270Z,4.53
2022-10-07T00:28:36.461Z,4.45
2022-10-07T00:33:58.826Z,5.13
2022-10-07T00:39:19.413Z,6.93
2022-10-07T00:44:43.543Z,7.50
2022-10-07T00:50:11.039Z,7.30
2022-10-07T00:55:32.494Z,6.50
2022-10-07T01:00:53.891Z,5.60
2022-10-07T01:06:15.277Z,4.82
2022-10-07T01:11:50.798Z,5.22
2022-10-07T01:17:28.610Z,4.60
2022-10-07T01:23:16.501Z,4.50
2022-10-07T01:28:43.408Z,5.35
2022-10-07T01:34:08.408Z,6.07
2022-10-07T01:39:34.557Z,5.28
2022-10-07T01:44:58.857Z,8.57
2022-10-07T01:50:24.085Z,7.07
2022-10-07T01:55:54.022Z,4.65
2022-10-07T02:01:50.594Z,4.82
2022-10-07T02:07:11.425Z,5.05
2022-10-07T02:12:40.942Z,4.47
2022-10-07T02:18:08.412Z,4.22
2022-10-07T02:23:29.675Z,4.22
2022-10-07T02:28:53.642Z,5.15
2022-10-07T02:34:20.304Z,4.53
2022-10-07T02:39:43.683Z,4.32
2022-10-07T02:45:17.460Z,4.57
2022-10-07T02:50:45.385Z,4.53
2022-10-07T02:56:07.555Z,4.05
2022-10-07T03:01:33.018Z,4.30
2022-10-07T03:06:55.016Z,4.50
2022-10-07T03:12:18.285Z,4.43
2022-10-07T03:17:40.848Z,3.63
2022-10-07T03:23:02.227Z,3.40
2022-10-07T03:28:25.630Z,3.20
2022-10-07T03:33:47.708Z,3.60
2022-10-07T03:39:08.512Z,3.60
2022-10-07T03:44:30.714Z,3.45
2022-10-07T03:49:51.962Z,3.15
2022-10-07T03:55:12.581Z,2.95
2022-10-07T04:00:34.553Z,2.20
2022-10-07T04:05:59.774Z,1.95
2022-10-07T04:11:24.384Z,1.65
2022-10-07T04:16:48.335Z,1.42
2022-10-07T04:22:09.965Z,1.52
2022-10-07T04:27:50.761Z,1.50
2022-10-07T04:33:12.501Z,1.70
2022-10-07T04:38:33.850Z,1.70
2022-10-07T04:43:57.966Z,1.08
2022-10-07T04:49:21.969Z,1.30
2022-10-07T04:54:42.691Z,1.42
2022-10-07T05:00:05.577Z,1.27
2022-10-07T05:05:28.034Z,1.23
2022-10-07T05:10:55.269Z,3.70
2022-10-07T05:16:16.519Z,5.00
2022-10-07T05:21:37.811Z,3.25
2022-10-07T05:26:59.160Z,2.08
2022-10-07T05:32:21.423Z,1.65
2022-10-07T05:37:44.587Z,1.50
2022-10-07T05:43:10.822Z,1.52
2022-10-07T05:48:38.089Z,1.42
2022-10-07T05:54:01.303Z,1.40
2022-10-07T05:59:28.764Z,1.33
2022-10-07T06:04:49.469Z,1.65
2022-10-07T06:10:29.974Z,1.88
2022-10-07T06:15:51.125Z,2.30
2022-10-07T06:21:12.781Z,1.52
2022-10-07T06:26:34.633Z,1.17
2022-10-07T06:31:56.659Z,1.48
2022-10-07T06:37:17.783Z,2.00
2022-10-07T06:42:38.637Z,2.00
2022-10-07T06:48:23.157Z,3.20
2022-10-07T06:53:45.360Z,7.53
2022-10-07T06:59:07.802Z,3.75
2022-10-07T07:05:04.622Z,2.25
2022-10-07T07:10:25.590Z,1.77
2022-10-07T07:16:00.209Z,1.70
2022-10-07T07:21:26.196Z,1.70
2022-10-07T07:26:47.501Z,1.90
2022-10-07T07:32:09.013Z,1.90
2022-10-07T07:37:34.070Z,2.17
2022-10-07T07:42:55.752Z,2.28
2022-10-07T07:48:16.702Z,2.60
2022-10-07T07:53:38.135Z,2.30
2022-10-07T07:59:00.469Z,2.80
2022-10-07T08:04:22.898Z,2.78
2022-10-07T08:09:44.064Z,2.20
2022-10-07T08:15:05.606Z,2.15
2022-10-07T08:20:26.986Z,2.65
2022-10-07T08:25:53.755Z,2.85
2022-10-07T08:31:18.086Z,6.30
2022-10-07T08:36:39.756Z,7.25
2022-10-07T08:42:15.179Z,5.70
2022-10-07T08:47:44.253Z,5.80
2022-10-07T08:53:08.839Z,7.03
2022-10-07T08:58:38.446Z,8.10
2022-10-07T09:04:21.139Z,9.70
2022-10-07T09:10:09.660Z,6.38
2022-10-07T09:15:47.501Z,7.60
2022-10-07T09:21:20.046Z,6.53
2022-10-07T09:26:41.557Z,7.22
2022-10-07T09:32:02.621Z,5.97
2022-10-07T09:37:26.677Z,6.32
2022-10-07T09:42:49.744Z,5.85
2022-10-07T09:48:20.974Z,6.80
2022-10-07T09:54:04.069Z,5.70
2022-10-07T09:59:36.183Z,5.88
2022-10-07T10:04:57.581Z,5.60
2022-10-07T10:10:23.474Z,5.13
2022-10-07T10:15:44.982Z,5.53
2022-10-07T10:21:22.670Z,5.88
2022-10-07T10:27:21.860Z,6.35
2022-10-07T10:32:50.000Z,6.45
2022-10-07T10:38:28.388Z,6.70
2022-10-07T10:43:59.092Z,6.90
2022-10-07T10:49:28.909Z,7.38
2022-10-07T10:54:49.778Z,7.32
2022-10-07T11:00:16.034Z,6.05
2022-10-07T11:05:42.611Z,7.07
2022-10-07T11:11:09.068Z,7.88
2022-10-07T11:16:51.271Z,7.82
2022-10-07T11:22:32.922Z,9.45
2022-10-07T11:28:01.422Z,10.15
2022-10-07T11:33:34.032Z,10.88
2022-10-07T11:38:54.792Z,12.02
2022-10-07T11:44:28.992Z,12.07
2022-10-07T11:49:57.850Z,12.63
2022-10-07T11:55:34.340Z,12.73
2022-10-07T12:01:26.399Z,12.35
2022-10-07T12:07:25.120Z,11.73
2022-10-07T12:12:46.694Z,12.90
2022-10-07T12:18:07.632Z,13.63
2022-10-07T12:23:37.535Z,11.63
2022-10-07T12:29:04.681Z,11.75
2022-10-07T12:34:36.138Z,11.15
2022-10-07T12:39:59.042Z,11.63
2022-10-07T12:45:22.794Z,12.30
2022-10-07T12:50:45.816Z,11.38
2022-10-07T12:56:06.748Z,11.70
2022-10-07T13:01:52.512Z,12.43
2022-10-07T13:07:46.158Z,12.20
2022-10-07T13:13:39.908Z,12.70
2022-10-07T13:19:15.270Z,10.55
2022-10-07T13:24:40.532Z,11.95
2022-10-07T13:30:04.781Z,11.00
2022-10-07T13:35:32.492Z,10.68
2022-10-07T13:41:24.902Z,12.30
2022-10-07T13:47:01.278Z,10.25
2022-10-07T13:52:41.720Z,10.50
2022-10-07T13:58:05.443Z,11.00
2022-10-07T14:03:26.095Z,9.95
2022-10-07T14:08:51.404Z,11.18
2022-10-07T14:14:19.662Z,10.75
2022-10-07T14:19:41.146Z,10.05
2022-10-07T14:25:04.312Z,10.15
2022-10-07T14:30:28.273Z,9.02
2022-10-07T14:35:51.355Z,9.75
2022-10-07T14:41:13.129Z,9.73
2022-10-07T14:46:34.101Z,8.93
2022-10-07T14:51:54.653Z,9.25
2022-10-07T14:57:15.371Z,9.40
2022-10-07T15:02:35.791Z,7.90
2022-10-07T15:07:56.518Z,9.30
2022-10-07T15:13:17.178Z,9.05
2022-10-07T15:18:42.360Z,8.65
2022-10-07T15:24:04.171Z,8.23
2022-10-07T15:29:24.812Z,7.10
2022-10-07T15:34:46.041Z,7.32
2022-10-07T15:40:07.718Z,7.43
2022-10-07T15:45:28.582Z,6.63
2022-10-07T15:50:51.497Z,6.82
2022-10-07T15:56:12.386Z,7.25
2022-10-07T16:01:33.133Z,6.63
2022-10-07T16:06:53.636Z,7.28
2022-10-07T16:12:14.441Z,7.70
2022-10-07T16:17:35.663Z,7.65
2022-10-07T16:22:56.567Z,8.25
2022-10-07T16:28:35.726Z,8.18
2022-10-07T16:33:56.686Z,7.10
2022-10-07T16:39:20.046Z,7.43
2022-10-07T16:44:40.939Z,7.72
2022-10-07T16:50:01.545Z,7.80
2022-10-07T16:55:22.946Z,8.77
2022-10-07T17:00:44.033Z,7.90
2022-10-07T17:06:05.001Z,8.38
2022-10-07T17:11:28.749Z,9.60
2022-10-07T17:16:55.999Z,10.90
2022-10-07T17:22:17.276Z,14.27
2022-10-07T17:27:37.958Z,28.58
2022-10-07T17:32:58.758Z,29.92
2022-10-07T17:38:19.289Z,23.00
2022-10-07T17:43:41.495Z,27.98
2022-10-07T17:49:02.855Z,26.45
2022-10-07T17:54:24.095Z,18.80
2022-10-07T17:59:44.968Z,19.08
2022-10-07T18:05:07.225Z,17.75
2022-10-07T18:10:28.020Z,18.02
2022-10-07T18:15:57.822Z,16.65
2022-10-07T18:26:39.005Z,18.83
2022-10-07T18:31:59.972Z,17.67
2022-10-07T18:37:21.114Z,18.00
2022-10-07T18:42:42.061Z,17.42
2022-10-07T18:48:03.344Z,20.33
2022-10-07T18:53:24.206Z,23.63
2022-10-07T18:58:47.449Z,22.63
2022-10-07T19:04:09.749Z,22.92
2022-10-07T19:09:31.980Z,21.52
2022-10-07T19:14:54.379Z,22.65
2022-10-07T19:20:17.070Z,20.05
2022-10-07T19:25:47.556Z,21.95
2022-10-07T19:31:16.170Z,17.88
2022-10-07T19:36:42.443Z,16.55
2022-10-07T19:42:03.286Z,15.55
2022-10-07T19:47:25.096Z,13.43
2022-10-07T19:52:46.941Z,10.88
2022-10-07T19:58:07.552Z,10.88
2022-10-07T20:03:28.365Z,13.82
2022-10-07T20:08:48.860Z,13.63
2022-10-07T20:14:10.364Z,13.23
2022-10-07T20:19:31.398Z,11.82
2022-10-07T20:24:52.145Z,11.50
2022-10-07T20:30:17.832Z,10.88
2022-10-07T20:35:39.580Z,11.38
2022-10-07T20:41:19.394Z,12.07
2022-10-07T20:46:40.757Z,11.18
2022-10-07T20:52:07.184Z,11.07
2022-10-07T20:57:33.949Z,13.75
2022-10-07T21:02:55.038Z,11.73
2022-10-07T21:08:15.888Z,13.88
2022-10-07T21:13:36.433Z,15.48
2022-10-07T21:18:57.240Z,14.68
2022-10-07T21:24:18.734Z,16.33
2022-10-07T21:29:41.395Z,21.77
2022-10-07T21:35:02.632Z,19.95
2022-10-07T21:40:23.360Z,18.60
2022-10-07T21:45:44.222Z,14.05
2022-10-07T21:51:09.506Z,11.57
2022-10-07T21:56:32.318Z,14.82
2022-10-07T22:01:53.167Z,16.85
2022-10-07T22:07:32.335Z,14.93
2022-10-07T22:12:54.207Z,15.90
2022-10-07T22:18:15.585Z,15.35
2022-10-07T22:23:36.638Z,16.00
2022-10-07T22:28:57.695Z,14.93
2022-10-07T22:34:37.274Z,14.23
2022-10-07T22:39:57.815Z,12.30
2022-10-07T22:45:19.642Z,13.05
2022-10-07T22:50:40.628Z,12.07
2022-10-07T22:56:06.408Z,12.13
2022-10-07T23:01:31.499Z,12.02
2022-10-07T23:06:53.560Z,12.20
2022-10-07T23:12:14.518Z,11.30
2022-10-07T23:17:35.376Z,11.63
2022-10-07T23:22:56.018Z,13.20
2022-10-07T23:28:16.740Z,12.27
2022-10-07T23:33:38.266Z,11.02
2022-10-07T23:39:00.670Z,10.95
2022-10-07T23:44:23.098Z,11.10
2022-10-07T23:49:43.838Z,11.38
2022-10-07T23:55:05.226Z,10.65
